sensor_id;sensor_type;location;lat;lon;timestamp;P1;durP1;ratioP1;P2;durP2;ratioP2
82835;SDS011;72587;50.746;8.246;2023-12-20T00:00:04;1.40;;;0.63;;
82835;SDS011;72587;50.746;8.246;2023-12-20T00:02:30;2.10;;;0.70;;
82835;SDS011;72587;50.746;8.246;2023-12-20T00:04:56;1.33;;;0.63;;
82835;SDS011;72587;50.746;8.246;2023-12-20T00:07:22;2.97;;;0.70;;
82835;SDS011;72587;50.746;8.246;2023-12-20T00:09:47;0.60;;;0.47;;
82835;SDS011;72587;50.746;8.246;2023-12-20T00:12:13;0.90;;;0.50;;
82835;SDS011;72587;50.746;8.246;2023-12-20T00:14:38;1.27;;;0.70;;
82835;SDS011;72587;50.746;8.246;2023-12-20T00:17:04;0.63;;;0.53;;
82835;SDS011;72587;50.746;8.246;2023-12-20T00:19:29;0.73;;;0.67;;
82835;SDS011;72587;50.746;8.246;2023-12-20T00:21:55;1.30;;;0.70;;
82835;SDS011;72587;50.746;8.246;2023-12-20T00:24:20;2.03;;;0.70;;
82835;SDS011;72587;50.746;8.246;2023-12-20T00:26:46;3.13;;;0.80;;
82835;SDS011;72587;50.746;8.246;2023-12-20T00:29:12;1.47;;;0.70;;
82835;SDS011;72587;50.746;8.246;2023-12-20T00:31:37;0.93;;;0.67;;
82835;SDS011;72587;50.746;8.246;2023-12-20T00:34:03;0.73;;;0.50;;
82835;SDS011;72587;50.746;8.246;2023-12-20T00:36:28;2.50;;;0.57;;
82835;SDS011;72587;50.746;8.246;2023-12-20T00:38:54;1.10;;;0.60;;
82835;SDS011;72587;50.746;8.246;2023-12-20T00:41:19;0.70;;;0.60;;
82835;SDS011;72587;50.746;8.246;2023-12-20T00:43:45;1.33;;;0.70;;
82835;SDS011;72587;50.746;8.246;2023-12-20T00:46:10;1.00;;;0.67;;
82835;SDS011;72587;50.746;8.246;2023-12-20T00:48:36;1.63;;;0.60;;
82835;SDS011;72587;50.746;8.246;2023-12-20T00:51:01;0.90;;;0.60;;
82835;SDS011;72587;50.746;8.246;2023-12-20T00:53:27;1.20;;;0.70;;
82835;SDS011;72587;50.746;8.246;2023-12-20T00:55:53;0.70;;;0.50;;
82835;SDS011;72587;50.746;8.246;2023-12-20T00:58:18;0.93;;;0.53;;
82835;SDS011;72587;50.746;8.246;2023-12-20T01:00:44;3.40;;;0.60;;
82835;SDS011;72587;50.746;8.246;2023-12-20T01:03:10;0.73;;;0.70;;
82835;SDS011;72587;50.746;8.246;2023-12-20T01:05:36;3.70;;;0.70;;
82835;SDS011;72587;50.746;8.246;2023-12-20T01:08:01;1.23;;;0.80;;
82835;SDS011;72587;50.746;8.246;2023-12-20T01:10:28;1.03;;;0.70;;
82835;SDS011;72587;50.746;8.246;2023-12-20T01:12:54;0.73;;;0.67;;
82835;SDS011;72587;50.746;8.246;2023-12-20T01:15:20;1.83;;;0.70;;
82835;SDS011;72587;50.746;8.246;2023-12-20T01:17:45;4.13;;;0.70;;
82835;SDS011;72587;50.746;8.246;2023-12-20T01:20:12;2.83;;;1.00;;
82835;SDS011;72587;50.746;8.246;2023-12-20T01:22:37;2.90;;;1.50;;
82835;SDS011;72587;50.746;8.246;2023-12-20T01:25:03;3.40;;;1.63;;
82835;SDS011;72587;50.746;8.246;2023-12-20T01:27:28;1.73;;;1.10;;
82835;SDS011;72587;50.746;8.246;2023-12-20T01:29:56;3.03;;;1.53;;
82835;SDS011;72587;50.746;8.246;2023-12-20T01:32:21;3.63;;;2.10;;
82835;SDS011;72587;50.746;8.246;2023-12-20T01:34:47;5.03;;;2.33;;
82835;SDS011;72587;50.746;8.246;2023-12-20T01:37:13;3.03;;;1.80;;
82835;SDS011;72587;50.746;8.246;2023-12-20T01:39:39;3.10;;;1.20;;
82835;SDS011;72587;50.746;8.246;2023-12-20T01:42:04;4.23;;;1.20;;
82835;SDS011;72587;50.746;8.246;2023-12-20T01:44:30;4.57;;;1.07;;
82835;SDS011;72587;50.746;8.246;2023-12-20T01:46:55;2.50;;;0.93;;
82835;SDS011;72587;50.746;8.246;2023-12-20T01:49:22;4.17;;;0.80;;
82835;SDS011;72587;50.746;8.246;2023-12-20T01:51:48;1.60;;;0.83;;
82835;SDS011;72587;50.746;8.246;2023-12-20T01:54:14;1.20;;;0.73;;
82835;SDS011;72587;50.746;8.246;2023-12-20T01:56:40;1.40;;;0.70;;
82835;SDS011;72587;50.746;8.246;2023-12-20T01:59:06;2.00;;;0.90;;
82835;SDS011;72587;50.746;8.246;2023-12-20T02:01:34;1.13;;;0.63;;
82835;SDS011;72587;50.746;8.246;2023-12-20T02:04:00;2.83;;;0.67;;
82835;SDS011;72587;50.746;8.246;2023-12-20T02:06:28;0.83;;;0.67;;
82835;SDS011;72587;50.746;8.246;2023-12-20T02:08:57;1.33;;;0.67;;
82835;SDS011;72587;50.746;8.246;2023-12-20T02:11:23;3.60;;;1.00;;
82835;SDS011;72587;50.746;8.246;2023-12-20T02:13:50;2.40;;;0.93;;
82835;SDS011;72587;50.746;8.246;2023-12-20T02:16:15;3.10;;;1.00;;
82835;SDS011;72587;50.746;8.246;2023-12-20T02:18:42;2.17;;;0.90;;
82835;SDS011;72587;50.746;8.246;2023-12-20T02:21:09;1.23;;;0.50;;
82835;SDS011;72587;50.746;8.246;2023-12-20T02:23:34;0.80;;;0.40;;
82835;SDS011;72587;50.746;8.246;2023-12-20T02:26:00;1.80;;;0.50;;
82835;SDS011;72587;50.746;8.246;2023-12-20T02:28:26;1.30;;;0.30;;
82835;SDS011;72587;50.746;8.246;2023-12-20T02:30:52;0.30;;;0.30;;
82835;SDS011;72587;50.746;8.246;2023-12-20T02:33:18;3.10;;;0.40;;
82835;SDS011;72587;50.746;8.246;2023-12-20T02:35:43;1.37;;;0.50;;
82835;SDS011;72587;50.746;8.246;2023-12-20T02:38:09;4.10;;;0.60;;
82835;SDS011;72587;50.746;8.246;2023-12-20T02:40:34;1.50;;;0.97;;
82835;SDS011;72587;50.746;8.246;2023-12-20T02:43:00;2.93;;;1.30;;
82835;SDS011;72587;50.746;8.246;2023-12-20T02:45:26;4.27;;;1.37;;
82835;SDS011;72587;50.746;8.246;2023-12-20T02:47:52;6.17;;;1.80;;
82835;SDS011;72587;50.746;8.246;2023-12-20T02:50:17;7.93;;;2.20;;
82835;SDS011;72587;50.746;8.246;2023-12-20T02:52:44;11.53;;;2.10;;
82835;SDS011;72587;50.746;8.246;2023-12-20T02:55:10;11.07;;;2.33;;
82835;SDS011;72587;50.746;8.246;2023-12-20T02:57:36;9.43;;;2.10;;
82835;SDS011;72587;50.746;8.246;2023-12-20T03:00:06;7.10;;;2.03;;
82835;SDS011;72587;50.746;8.246;2023-12-20T03:02:35;4.80;;;1.87;;
82835;SDS011;72587;50.746;8.246;2023-12-20T03:05:01;3.87;;;1.87;;
82835;SDS011;72587;50.746;8.246;2023-12-20T03:07:27;4.43;;;1.70;;
82835;SDS011;72587;50.746;8.246;2023-12-20T03:09:53;6.23;;;2.30;;
82835;SDS011;72587;50.746;8.246;2023-12-20T03:12:19;3.93;;;1.97;;
82835;SDS011;72587;50.746;8.246;2023-12-20T03:14:44;6.37;;;1.80;;
82835;SDS011;72587;50.746;8.246;2023-12-20T03:17:10;3.10;;;1.80;;
82835;SDS011;72587;50.746;8.246;2023-12-20T03:19:35;8.70;;;1.80;;
82835;SDS011;72587;50.746;8.246;2023-12-20T03:22:01;7.40;;;2.23;;
82835;SDS011;72587;50.746;8.246;2023-12-20T03:24:27;6.20;;;2.10;;
82835;SDS011;72587;50.746;8.246;2023-12-20T03:26:53;9.23;;;2.10;;
82835;SDS011;72587;50.746;8.246;2023-12-20T03:29:18;7.13;;;2.60;;
82835;SDS011;72587;50.746;8.246;2023-12-20T03:31:44;7.07;;;2.40;;
82835;SDS011;72587;50.746;8.246;2023-12-20T03:34:10;3.97;;;2.50;;
82835;SDS011;72587;50.746;8.246;2023-12-20T03:36:36;8.20;;;2.70;;
82835;SDS011;72587;50.746;8.246;2023-12-20T03:39:02;8.43;;;2.50;;
82835;SDS011;72587;50.746;8.246;2023-12-20T03:41:27;8.13;;;2.50;;
82835;SDS011;72587;50.746;8.246;2023-12-20T03:43:53;5.13;;;2.60;;
82835;SDS011;72587;50.746;8.246;2023-12-20T03:46:19;12.17;;;3.13;;
82835;SDS011;72587;50.746;8.246;2023-12-20T03:48:44;8.07;;;2.93;;
82835;SDS011;72587;50.746;8.246;2023-12-20T03:51:10;11.37;;;3.10;;
82835;SDS011;72587;50.746;8.246;2023-12-20T03:53:35;8.10;;;3.23;;
82835;SDS011;72587;50.746;8.246;2023-12-20T03:56:01;6.10;;;2.83;;
82835;SDS011;72587;50.746;8.246;2023-12-20T03:58:27;7.73;;;2.83;;
82835;SDS011;72587;50.746;8.246;2023-12-20T04:00:52;12.70;;;2.87;;
82835;SDS011;72587;50.746;8.246;2023-12-20T04:03:18;5.90;;;2.77;;
82835;SDS011;72587;50.746;8.246;2023-12-20T04:05:43;4.90;;;2.40;;
82835;SDS011;72587;50.746;8.246;2023-12-20T04:08:09;8.03;;;3.07;;
82835;SDS011;72587;50.746;8.246;2023-12-20T04:10:34;11.33;;;3.27;;
82835;SDS011;72587;50.746;8.246;2023-12-20T04:13:00;7.43;;;3.20;;
82835;SDS011;72587;50.746;8.246;2023-12-20T04:15:26;10.63;;;4.03;;
82835;SDS011;72587;50.746;8.246;2023-12-20T04:17:51;16.67;;;4.80;;
82835;SDS011;72587;50.746;8.246;2023-12-20T04:20:17;10.00;;;5.00;;
82835;SDS011;72587;50.746;8.246;2023-12-20T04:22:43;16.60;;;5.33;;
82835;SDS011;72587;50.746;8.246;2023-12-20T04:25:08;17.60;;;5.73;;
82835;SDS011;72587;50.746;8.246;2023-12-20T04:27:34;14.93;;;5.77;;
82835;SDS011;72587;50.746;8.246;2023-12-20T04:30:00;12.63;;;5.20;;
82835;SDS011;72587;50.746;8.246;2023-12-20T04:32:25;16.53;;;5.70;;
82835;SDS011;72587;50.746;8.246;2023-12-20T04:34:51;16.10;;;5.00;;
82835;SDS011;72587;50.746;8.246;2023-12-20T04:37:16;17.33;;;5.00;;
82835;SDS011;72587;50.746;8.246;2023-12-20T04:39:42;12.80;;;5.00;;
82835;SDS011;72587;50.746;8.246;2023-12-20T04:42:08;14.60;;;5.00;;
82835;SDS011;72587;50.746;8.246;2023-12-20T04:44:33;8.17;;;4.37;;
82835;SDS011;72587;50.746;8.246;2023-12-20T04:46:59;12.47;;;4.67;;
82835;SDS011;72587;50.746;8.246;2023-12-20T04:49:25;15.67;;;4.43;;
82835;SDS011;72587;50.746;8.246;2023-12-20T04:51:50;11.13;;;4.47;;
82835;SDS011;72587;50.746;8.246;2023-12-20T04:54:16;15.33;;;5.10;;
82835;SDS011;72587;50.746;8.246;2023-12-20T04:56:42;18.53;;;4.60;;
82835;SDS011;72587;50.746;8.246;2023-12-20T04:59:07;15.63;;;4.30;;
82835;SDS011;72587;50.746;8.246;2023-12-20T05:01:33;11.47;;;4.13;;
82835;SDS011;72587;50.746;8.246;2023-12-20T05:03:58;9.73;;;4.60;;
82835;SDS011;72587;50.746;8.246;2023-12-20T05:06:24;10.43;;;3.60;;
82835;SDS011;72587;50.746;8.246;2023-12-20T05:08:50;13.57;;;3.60;;
82835;SDS011;72587;50.746;8.246;2023-12-20T05:11:15;13.90;;;3.60;;
82835;SDS011;72587;50.746;8.246;2023-12-20T05:13:41;12.43;;;3.80;;
82835;SDS011;72587;50.746;8.246;2023-12-20T05:16:07;17.53;;;3.70;;
82835;SDS011;72587;50.746;8.246;2023-12-20T05:18:34;16.10;;;3.17;;
82835;SDS011;72587;50.746;8.246;2023-12-20T05:20:59;12.10;;;3.13;;
82835;SDS011;72587;50.746;8.246;2023-12-20T05:23:25;8.63;;;2.93;;
82835;SDS011;72587;50.746;8.246;2023-12-20T05:25:50;9.83;;;3.17;;
82835;SDS011;72587;50.746;8.246;2023-12-20T05:28:16;12.33;;;3.60;;
82835;SDS011;72587;50.746;8.246;2023-12-20T05:30:42;8.63;;;3.40;;
82835;SDS011;72587;50.746;8.246;2023-12-20T05:33:08;8.33;;;3.20;;
82835;SDS011;72587;50.746;8.246;2023-12-20T05:35:34;13.43;;;4.77;;
82835;SDS011;72587;50.746;8.246;2023-12-20T05:38:00;12.63;;;3.77;;
82835;SDS011;72587;50.746;8.246;2023-12-20T05:40:25;12.67;;;3.37;;
82835;SDS011;72587;50.746;8.246;2023-12-20T05:42:51;14.33;;;3.63;;
82835;SDS011;72587;50.746;8.246;2023-12-20T05:45:16;15.70;;;3.53;;
82835;SDS011;72587;50.746;8.246;2023-12-20T05:47:42;10.43;;;3.20;;
82835;SDS011;72587;50.746;8.246;2023-12-20T05:50:07;15.00;;;4.00;;
82835;SDS011;72587;50.746;8.246;2023-12-20T05:52:34;20.70;;;3.60;;
82835;SDS011;72587;50.746;8.246;2023-12-20T05:54:59;7.70;;;3.27;;
82835;SDS011;72587;50.746;8.246;2023-12-20T05:57:26;13.43;;;3.90;;
82835;SDS011;72587;50.746;8.246;2023-12-20T05:59:52;16.83;;;3.63;;
82835;SDS011;72587;50.746;8.246;2023-12-20T06:02:17;8.40;;;3.37;;
82835;SDS011;72587;50.746;8.246;2023-12-20T06:04:43;13.87;;;3.87;;
82835;SDS011;72587;50.746;8.246;2023-12-20T06:07:12;16.57;;;3.80;;
82835;SDS011;72587;50.746;8.246;2023-12-20T06:09:38;9.70;;;3.17;;
82835;SDS011;72587;50.746;8.246;2023-12-20T06:12:04;10.33;;;2.70;;
82835;SDS011;72587;50.746;8.246;2023-12-20T06:14:30;12.80;;;2.90;;
82835;SDS011;72587;50.746;8.246;2023-12-20T06:16:56;6.13;;;2.30;;
82835;SDS011;72587;50.746;8.246;2023-12-20T06:19:22;8.00;;;2.77;;
82835;SDS011;72587;50.746;8.246;2023-12-20T06:21:47;7.67;;;2.17;;
82835;SDS011;72587;50.746;8.246;2023-12-20T06:24:13;7.83;;;2.00;;
82835;SDS011;72587;50.746;8.246;2023-12-20T06:26:39;4.37;;;2.20;;
82835;SDS011;72587;50.746;8.246;2023-12-20T06:29:05;7.07;;;2.63;;
82835;SDS011;72587;50.746;8.246;2023-12-20T06:31:30;9.57;;;2.30;;
82835;SDS011;72587;50.746;8.246;2023-12-20T06:33:57;9.30;;;2.77;;
82835;SDS011;72587;50.746;8.246;2023-12-20T06:36:24;7.63;;;3.50;;
82835;SDS011;72587;50.746;8.246;2023-12-20T06:38:51;6.07;;;2.93;;
82835;SDS011;72587;50.746;8.246;2023-12-20T06:41:16;11.93;;;2.80;;
82835;SDS011;72587;50.746;8.246;2023-12-20T06:43:42;10.50;;;3.33;;
82835;SDS011;72587;50.746;8.246;2023-12-20T06:46:08;6.83;;;3.20;;
82835;SDS011;72587;50.746;8.246;2023-12-20T06:48:34;8.73;;;3.57;;
82835;SDS011;72587;50.746;8.246;2023-12-20T06:51:00;13.03;;;4.10;;
82835;SDS011;72587;50.746;8.246;2023-12-20T06:53:27;25.37;;;4.60;;
82835;SDS011;72587;50.746;8.246;2023-12-20T06:55:52;19.40;;;5.00;;
82835;SDS011;72587;50.746;8.246;2023-12-20T06:58:18;20.60;;;4.60;;
82835;SDS011;72587;50.746;8.246;2023-12-20T07:00:43;15.60;;;4.70;;
82835;SDS011;72587;50.746;8.246;2023-12-20T07:03:09;13.70;;;4.53;;
82835;SDS011;72587;50.746;8.246;2023-12-20T07:05:35;15.63;;;4.57;;
82835;SDS011;72587;50.746;8.246;2023-12-20T07:08:00;23.80;;;4.90;;
82835;SDS011;72587;50.746;8.246;2023-12-20T07:10:26;16.87;;;5.43;;
82835;SDS011;72587;50.746;8.246;2023-12-20T07:12:51;22.90;;;5.47;;
82835;SDS011;72587;50.746;8.246;2023-12-20T07:15:20;19.43;;;5.37;;
82835;SDS011;72587;50.746;8.246;2023-12-20T07:17:46;26.67;;;5.40;;
82835;SDS011;72587;50.746;8.246;2023-12-20T07:20:11;24.30;;;5.43;;
82835;SDS011;72587;50.746;8.246;2023-12-20T07:22:37;19.90;;;5.00;;
82835;SDS011;72587;50.746;8.246;2023-12-20T07:25:03;29.27;;;5.03;;
82835;SDS011;72587;50.746;8.246;2023-12-20T07:27:29;12.53;;;4.57;;
82835;SDS011;72587;50.746;8.246;2023-12-20T07:29:54;20.23;;;5.17;;
82835;SDS011;72587;50.746;8.246;2023-12-20T07:32:20;20.57;;;4.73;;
82835;SDS011;72587;50.746;8.246;2023-12-20T07:34:45;16.27;;;4.97;;
82835;SDS011;72587;50.746;8.246;2023-12-20T07:37:11;14.20;;;4.67;;
82835;SDS011;72587;50.746;8.246;2023-12-20T07:39:39;30.13;;;10.07;;
82835;SDS011;72587;50.746;8.246;2023-12-20T07:42:06;28.63;;;7.70;;
82835;SDS011;72587;50.746;8.246;2023-12-20T07:44:32;16.53;;;5.20;;
82835;SDS011;72587;50.746;8.246;2023-12-20T07:46:57;22.57;;;4.53;;
82835;SDS011;72587;50.746;8.246;2023-12-20T07:49:23;16.17;;;5.53;;
82835;SDS011;72587;50.746;8.246;2023-12-20T07:51:49;19.87;;;5.07;;
82835;SDS011;72587;50.746;8.246;2023-12-20T07:54:15;16.63;;;4.77;;
82835;SDS011;72587;50.746;8.246;2023-12-20T07:56:40;20.97;;;5.53;;
82835;SDS011;72587;50.746;8.246;2023-12-20T07:59:06;10.07;;;4.00;;
82835;SDS011;72587;50.746;8.246;2023-12-20T08:01:32;13.40;;;4.73;;
82835;SDS011;72587;50.746;8.246;2023-12-20T08:03:58;23.70;;;4.93;;
82835;SDS011;72587;50.746;8.246;2023-12-20T08:06:23;19.03;;;5.23;;
82835;SDS011;72587;50.746;8.246;2023-12-20T08:08:49;16.27;;;4.73;;
82835;SDS011;72587;50.746;8.246;2023-12-20T08:11:15;21.30;;;5.30;;
82835;SDS011;72587;50.746;8.246;2023-12-20T08:13:40;19.60;;;5.27;;
82835;SDS011;72587;50.746;8.246;2023-12-20T08:16:06;11.13;;;4.70;;
82835;SDS011;72587;50.746;8.246;2023-12-20T08:18:31;21.40;;;5.17;;
82835;SDS011;72587;50.746;8.246;2023-12-20T08:20:57;17.43;;;4.70;;
82835;SDS011;72587;50.746;8.246;2023-12-20T08:23:22;15.67;;;4.93;;
82835;SDS011;72587;50.746;8.246;2023-12-20T08:25:48;14.93;;;5.50;;
82835;SDS011;72587;50.746;8.246;2023-12-20T08:28:14;24.90;;;6.13;;
82835;SDS011;72587;50.746;8.246;2023-12-20T08:30:40;18.60;;;6.00;;
82835;SDS011;72587;50.746;8.246;2023-12-20T08:33:06;24.50;;;6.07;;
82835;SDS011;72587;50.746;8.246;2023-12-20T08:35:36;24.90;;;7.00;;
82835;SDS011;72587;50.746;8.246;2023-12-20T08:38:01;19.90;;;5.53;;
82835;SDS011;72587;50.746;8.246;2023-12-20T08:40:29;31.77;;;7.70;;
82835;SDS011;72587;50.746;8.246;2023-12-20T08:42:54;26.33;;;6.00;;
82835;SDS011;72587;50.746;8.246;2023-12-20T08:45:20;28.63;;;4.83;;
82835;SDS011;72587;50.746;8.246;2023-12-20T08:47:45;16.70;;;5.20;;
82835;SDS011;72587;50.746;8.246;2023-12-20T08:50:12;24.53;;;5.23;;
82835;SDS011;72587;50.746;8.246;2023-12-20T08:52:37;18.37;;;4.57;;
82835;SDS011;72587;50.746;8.246;2023-12-20T08:55:03;17.63;;;4.40;;
82835;SDS011;72587;50.746;8.246;2023-12-20T08:57:29;18.03;;;4.57;;
82835;SDS011;72587;50.746;8.246;2023-12-20T08:59:56;15.87;;;4.73;;
82835;SDS011;72587;50.746;8.246;2023-12-20T09:02:22;20.13;;;4.20;;
82835;SDS011;72587;50.746;8.246;2023-12-20T09:04:48;15.00;;;4.20;;
82835;SDS011;72587;50.746;8.246;2023-12-20T09:07:23;20.73;;;4.23;;
82835;SDS011;72587;50.746;8.246;2023-12-20T09:09:52;19.47;;;4.80;;
82835;SDS011;72587;50.746;8.246;2023-12-20T09:12:18;15.00;;;4.47;;
82835;SDS011;72587;50.746;8.246;2023-12-20T09:14:45;14.53;;;3.60;;
82835;SDS011;72587;50.746;8.246;2023-12-20T09:17:15;11.80;;;4.37;;
82835;SDS011;72587;50.746;8.246;2023-12-20T09:19:42;14.70;;;4.40;;
82835;SDS011;72587;50.746;8.246;2023-12-20T09:22:11;15.47;;;3.93;;
82835;SDS011;72587;50.746;8.246;2023-12-20T09:24:37;24.40;;;3.93;;
82835;SDS011;72587;50.746;8.246;2023-12-20T09:27:04;16.50;;;4.40;;
82835;SDS011;72587;50.746;8.246;2023-12-20T09:29:30;17.80;;;4.23;;
82835;SDS011;72587;50.746;8.246;2023-12-20T09:31:56;15.83;;;3.57;;
82835;SDS011;72587;50.746;8.246;2023-12-20T09:34:22;16.20;;;3.57;;
82835;SDS011;72587;50.746;8.246;2023-12-20T09:36:48;15.20;;;4.17;;
82835;SDS011;72587;50.746;8.246;2023-12-20T09:39:14;11.57;;;3.70;;
82835;SDS011;72587;50.746;8.246;2023-12-20T09:41:43;18.97;;;3.33;;
82835;SDS011;72587;50.746;8.246;2023-12-20T09:44:14;10.53;;;3.20;;
82835;SDS011;72587;50.746;8.246;2023-12-20T09:46:43;13.60;;;3.47;;
82835;SDS011;72587;50.746;8.246;2023-12-20T09:49:11;10.30;;;3.67;;
82835;SDS011;72587;50.746;8.246;2023-12-20T09:51:37;17.10;;;4.43;;
82835;SDS011;72587;50.746;8.246;2023-12-20T09:54:04;15.63;;;5.63;;
82835;SDS011;72587;50.746;8.246;2023-12-20T09:56:30;22.60;;;4.90;;
82835;SDS011;72587;50.746;8.246;2023-12-20T09:58:56;21.67;;;4.40;;
82835;SDS011;72587;50.746;8.246;2023-12-20T10:01:22;21.10;;;5.33;;
82835;SDS011;72587;50.746;8.246;2023-12-20T10:03:49;16.97;;;4.50;;
82835;SDS011;72587;50.746;8.246;2023-12-20T10:06:18;22.03;;;5.27;;
82835;SDS011;72587;50.746;8.246;2023-12-20T10:08:44;15.20;;;4.43;;
82835;SDS011;72587;50.746;8.246;2023-12-20T10:11:09;18.07;;;3.93;;
82835;SDS011;72587;50.746;8.246;2023-12-20T10:13:39;17.00;;;3.80;;
82835;SDS011;72587;50.746;8.246;2023-12-20T10:16:06;22.77;;;3.97;;
82835;SDS011;72587;50.746;8.246;2023-12-20T10:18:32;12.40;;;3.87;;
82835;SDS011;72587;50.746;8.246;2023-12-20T10:20:58;15.67;;;4.60;;
82835;SDS011;72587;50.746;8.246;2023-12-20T10:23:25;20.30;;;5.13;;
82835;SDS011;72587;50.746;8.246;2023-12-20T10:25:57;12.53;;;4.03;;
82835;SDS011;72587;50.746;8.246;2023-12-20T10:28:23;13.73;;;3.93;;
82835;SDS011;72587;50.746;8.246;2023-12-20T10:30:52;14.67;;;3.87;;
82835;SDS011;72587;50.746;8.246;2023-12-20T10:33:25;11.57;;;3.57;;
82835;SDS011;72587;50.746;8.246;2023-12-20T10:35:52;19.63;;;3.90;;
82835;SDS011;72587;50.746;8.246;2023-12-20T10:38:18;18.43;;;4.77;;
82835;SDS011;72587;50.746;8.246;2023-12-20T10:40:44;15.53;;;3.80;;
82835;SDS011;72587;50.746;8.246;2023-12-20T10:43:10;11.83;;;3.83;;
82835;SDS011;72587;50.746;8.246;2023-12-20T10:45:36;19.87;;;3.20;;
82835;SDS011;72587;50.746;8.246;2023-12-20T10:48:02;18.13;;;4.37;;
82835;SDS011;72587;50.746;8.246;2023-12-20T10:50:29;11.47;;;3.63;;
82835;SDS011;72587;50.746;8.246;2023-12-20T10:52:56;15.23;;;3.63;;
82835;SDS011;72587;50.746;8.246;2023-12-20T10:55:22;19.30;;;3.83;;
82835;SDS011;72587;50.746;8.246;2023-12-20T10:57:49;17.27;;;4.13;;
82835;SDS011;72587;50.746;8.246;2023-12-20T11:00:24;14.90;;;3.70;;
82835;SDS011;72587;50.746;8.246;2023-12-20T11:02:50;21.83;;;3.87;;
82835;SDS011;72587;50.746;8.246;2023-12-20T11:05:28;18.23;;;3.50;;
82835;SDS011;72587;50.746;8.246;2023-12-20T11:11:04;10.47;;;3.00;;
82835;SDS011;72587;50.746;8.246;2023-12-20T11:13:37;12.03;;;3.03;;
82835;SDS011;72587;50.746;8.246;2023-12-20T11:16:37;18.20;;;3.70;;
82835;SDS011;72587;50.746;8.246;2023-12-20T11:19:06;14.67;;;3.57;;
82835;SDS011;72587;50.746;8.246;2023-12-20T11:21:32;12.40;;;3.10;;
82835;SDS011;72587;50.746;8.246;2023-12-20T11:23:59;6.27;;;3.00;;
82835;SDS011;72587;50.746;8.246;2023-12-20T11:26:29;13.47;;;3.23;;
82835;SDS011;72587;50.746;8.246;2023-12-20T11:29:40;15.97;;;3.30;;
82835;SDS011;72587;50.746;8.246;2023-12-20T11:32:00;13.00;;;3.70;;
82835;SDS011;72587;50.746;8.246;2023-12-20T11:34:27;24.47;;;3.73;;
82835;SDS011;72587;50.746;8.246;2023-12-20T11:36:57;14.47;;;3.23;;
82835;SDS011;72587;50.746;8.246;2023-12-20T11:39:24;14.20;;;3.00;;
82835;SDS011;72587;50.746;8.246;2023-12-20T11:41:52;15.33;;;3.53;;
82835;SDS011;72587;50.746;8.246;2023-12-20T11:44:18;13.63;;;3.40;;
82835;SDS011;72587;50.746;8.246;2023-12-20T11:46:45;18.83;;;4.10;;
82835;SDS011;72587;50.746;8.246;2023-12-20T11:49:11;7.37;;;2.60;;
82835;SDS011;72587;50.746;8.246;2023-12-20T11:51:40;14.33;;;3.37;;
82835;SDS011;72587;50.746;8.246;2023-12-20T11:54:07;14.67;;;3.03;;
82835;SDS011;72587;50.746;8.246;2023-12-20T11:56:34;12.70;;;3.47;;
82835;SDS011;72587;50.746;8.246;2023-12-20T11:59:01;13.60;;;3.20;;
82835;SDS011;72587;50.746;8.246;2023-12-20T12:01:26;11.00;;;3.80;;
82835;SDS011;72587;50.746;8.246;2023-12-20T12:04:07;10.40;;;3.37;;
82835;SDS011;72587;50.746;8.246;2023-12-20T12:06:33;15.03;;;2.60;;
82835;SDS011;72587;50.746;8.246;2023-12-20T12:08:59;21.73;;;7.13;;
82835;SDS011;72587;50.746;8.246;2023-12-20T12:11:25;15.50;;;4.03;;
82835;SDS011;72587;50.746;8.246;2023-12-20T12:13:50;11.20;;;4.00;;
82835;SDS011;72587;50.746;8.246;2023-12-20T12:16:19;13.10;;;4.17;;
82835;SDS011;72587;50.746;8.246;2023-12-20T12:18:45;13.07;;;3.03;;
82835;SDS011;72587;50.746;8.246;2023-12-20T12:21:18;10.07;;;2.87;;
82835;SDS011;72587;50.746;8.246;2023-12-20T12:23:45;9.03;;;3.13;;
82835;SDS011;72587;50.746;8.246;2023-12-20T12:26:11;12.70;;;3.60;;
82835;SDS011;72587;50.746;8.246;2023-12-20T12:28:37;18.13;;;3.20;;
82835;SDS011;72587;50.746;8.246;2023-12-20T12:31:05;9.03;;;3.23;;
82835;SDS011;72587;50.746;8.246;2023-12-20T12:33:31;9.23;;;4.47;;
82835;SDS011;72587;50.746;8.246;2023-12-20T12:35:57;8.90;;;3.40;;
82835;SDS011;72587;50.746;8.246;2023-12-20T12:38:22;17.40;;;3.17;;
82835;SDS011;72587;50.746;8.246;2023-12-20T12:40:49;9.97;;;3.07;;
82835;SDS011;72587;50.746;8.246;2023-12-20T12:43:15;16.00;;;3.97;;
82835;SDS011;72587;50.746;8.246;2023-12-20T12:45:41;10.57;;;3.40;;
82835;SDS011;72587;50.746;8.246;2023-12-20T12:48:07;14.87;;;3.70;;
82835;SDS011;72587;50.746;8.246;2023-12-20T12:50:32;19.87;;;5.80;;
82835;SDS011;72587;50.746;8.246;2023-12-20T12:52:58;15.87;;;4.00;;
82835;SDS011;72587;50.746;8.246;2023-12-20T12:55:23;12.40;;;3.50;;
82835;SDS011;72587;50.746;8.246;2023-12-20T12:57:49;14.43;;;3.70;;
82835;SDS011;72587;50.746;8.246;2023-12-20T13:00:14;18.03;;;4.00;;
82835;SDS011;72587;50.746;8.246;2023-12-20T13:02:40;12.93;;;3.40;;
82835;SDS011;72587;50.746;8.246;2023-12-20T13:05:09;19.70;;;5.07;;
82835;SDS011;72587;50.746;8.246;2023-12-20T13:07:34;10.97;;;3.13;;
82835;SDS011;72587;50.746;8.246;2023-12-20T13:10:00;12.70;;;3.57;;
82835;SDS011;72587;50.746;8.246;2023-12-20T13:12:26;16.20;;;3.63;;
82835;SDS011;72587;50.746;8.246;2023-12-20T13:14:51;19.03;;;3.60;;
82835;SDS011;72587;50.746;8.246;2023-12-20T13:17:18;20.97;;;4.40;;
82835;SDS011;72587;50.746;8.246;2023-12-20T13:19:44;14.23;;;3.40;;
82835;SDS011;72587;50.746;8.246;2023-12-20T13:22:10;11.20;;;3.60;;
82835;SDS011;72587;50.746;8.246;2023-12-20T13:24:35;13.87;;;4.13;;
82835;SDS011;72587;50.746;8.246;2023-12-20T13:27:01;9.63;;;4.20;;
82835;SDS011;72587;50.746;8.246;2023-12-20T13:29:27;13.47;;;3.63;;
82835;SDS011;72587;50.746;8.246;2023-12-20T13:31:52;13.17;;;3.70;;
82835;SDS011;72587;50.746;8.246;2023-12-20T13:34:18;14.03;;;4.03;;
82835;SDS011;72587;50.746;8.246;2023-12-20T13:36:44;19.00;;;4.07;;
82835;SDS011;72587;50.746;8.246;2023-12-20T13:39:12;10.60;;;3.47;;
82835;SDS011;72587;50.746;8.246;2023-12-20T13:41:38;8.93;;;3.23;;
82835;SDS011;72587;50.746;8.246;2023-12-20T13:44:03;11.57;;;4.87;;
82835;SDS011;72587;50.746;8.246;2023-12-20T13:46:29;13.37;;;4.27;;
82835;SDS011;72587;50.746;8.246;2023-12-20T13:48:55;14.33;;;4.50;;
82835;SDS011;72587;50.746;8.246;2023-12-20T13:51:20;15.10;;;2.80;;
82835;SDS011;72587;50.746;8.246;2023-12-20T13:53:46;7.60;;;3.33;;
82835;SDS011;72587;50.746;8.246;2023-12-20T13:56:13;11.73;;;3.13;;
82835;SDS011;72587;50.746;8.246;2023-12-20T13:58:39;7.53;;;2.97;;
82835;SDS011;72587;50.746;8.246;2023-12-20T14:01:06;10.40;;;2.90;;
82835;SDS011;72587;50.746;8.246;2023-12-20T14:03:32;10.03;;;3.43;;
82835;SDS011;72587;50.746;8.246;2023-12-20T14:05:58;9.60;;;2.90;;
82835;SDS011;72587;50.746;8.246;2023-12-20T14:08:25;7.10;;;2.80;;
82835;SDS011;72587;50.746;8.246;2023-12-20T14:10:52;8.27;;;2.77;;
82835;SDS011;72587;50.746;8.246;2023-12-20T14:13:17;13.13;;;2.47;;
82835;SDS011;72587;50.746;8.246;2023-12-20T14:15:43;9.07;;;2.93;;
82835;SDS011;72587;50.746;8.246;2023-12-20T14:18:09;6.50;;;3.33;;
82835;SDS011;72587;50.746;8.246;2023-12-20T14:20:35;12.47;;;3.80;;
82835;SDS011;72587;50.746;8.246;2023-12-20T14:23:04;8.83;;;2.97;;
82835;SDS011;72587;50.746;8.246;2023-12-20T14:25:29;12.00;;;3.33;;
82835;SDS011;72587;50.746;8.246;2023-12-20T14:27:56;12.40;;;3.33;;
82835;SDS011;72587;50.746;8.246;2023-12-20T14:30:22;16.53;;;3.90;;
82835;SDS011;72587;50.746;8.246;2023-12-20T14:32:47;9.67;;;3.00;;
82835;SDS011;72587;50.746;8.246;2023-12-20T14:35:13;4.90;;;2.70;;
82835;SDS011;72587;50.746;8.246;2023-12-20T14:37:39;10.37;;;3.30;;